sensor_id;sensor_type;location;lat;lon;timestamp;pressure;altitude;pressure_sealevel;temperature;humidity
72855;BME280;60991;51.278;22.550;2022-11-25T00:01:28;98989.06;;;1.49;71.17
72855;BME280;60991;51.278;22.550;2022-11-25T00:02:58;98987.78;;;1.38;71.91
72855;BME280;60991;51.278;22.550;2022-11-25T00:04:28;98993.75;;;1.32;72.11
72855;BME280;60991;51.278;22.550;2022-11-25T00:06:08;98996.16;;;1.27;72.58
72855;BME280;60991;51.278;22.550;2022-11-25T00:07:39;98998.13;;;1.25;72.39
72855;BME280;60991;51.278;22.550;2022-11-25T00:09:10;99006.72;;;1.19;72.38
72855;BME280;60991;51.278;22.550;2022-11-25T00:10:41;99001.13;;;1.22;72.51
72855;BME280;60991;51.278;22.550;2022-11-25T00:12:11;99004.53;;;1.23;72.58
72855;BME280;60991;51.278;22.550;2022-11-25T00:13:42;99009.97;;;1.21;72.53
72855;BME280;60991;51.278;22.550;2022-11-25T00:15:13;99005.16;;;1.25;72.48
72855;BME280;60991;51.278;22.550;2022-11-25T00:16:43;99007.78;;;1.25;72.49
72855;BME280;60991;51.278;22.550;2022-11-25T00:18:13;99013.44;;;1.28;72.88
72855;BME280;60991;51.278;22.550;2022-11-25T00:19:43;99006.41;;;1.29;72.25
72855;BME280;60991;51.278;22.550;2022-11-25T00:21:17;99013.28;;;1.30;72.58
72855;BME280;60991;51.278;22.550;2022-11-25T00:22:47;99009.84;;;1.29;72.05
72855;BME280;60991;51.278;22.550;2022-11-25T00:24:17;99022.09;;;1.29;71.88
72855;BME280;60991;51.278;22.550;2022-11-25T00:25:48;99024.09;;;1.27;72.27
72855;BME280;60991;51.278;22.550;2022-11-25T00:27:18;99019.69;;;1.27;72.05
72855;BME280;60991;51.278;22.550;2022-11-25T00:28:49;99022.91;;;1.29;72.58
72855;BME280;60991;51.278;22.550;2022-11-25T00:30:19;99021.66;;;1.25;72.19
72855;BME280;60991;51.278;22.550;2022-11-25T00:31:49;99020.84;;;1.25;72.65
72855;BME280;60991;51.278;22.550;2022-11-25T00:33:20;99024.47;;;1.24;72.47
72855;BME280;60991;51.278;22.550;2022-11-25T00:34:50;99030.31;;;1.26;72.80
72855;BME280;60991;51.278;22.550;2022-11-25T00:36:25;99025.53;;;1.29;72.47
72855;BME280;60991;51.278;22.550;2022-11-25T00:37:56;99029.75;;;1.30;72.40
72855;BME280;60991;51.278;22.550;2022-11-25T00:39:26;99035.72;;;1.24;72.67
72855;BME280;60991;51.278;22.550;2022-11-25T00:40:56;99043.13;;;1.21;72.51
72855;BME280;60991;51.278;22.550;2022-11-25T00:42:27;99046.84;;;1.12;72.82
72855;BME280;60991;51.278;22.550;2022-11-25T00:43:57;99051.69;;;1.15;72.77
72855;BME280;60991;51.278;22.550;2022-11-25T00:45:27;99046.44;;;1.08;73.20
72855;BME280;60991;51.278;22.550;2022-11-25T00:46:57;99046.25;;;1.10;72.94
72855;BME280;60991;51.278;22.550;2022-11-25T00:48:28;99046.25;;;1.10;73.16
72855;BME280;60991;51.278;22.550;2022-11-25T00:49:58;99046.44;;;1.08;73.21
72855;BME280;60991;51.278;22.550;2022-11-25T00:51:28;99047.22;;;1.09;73.61
72855;BME280;60991;51.278;22.550;2022-11-25T00:52:58;99046.66;;;1.13;73.80
72855;BME280;60991;51.278;22.550;2022-11-25T00:54:29;99054.69;;;1.12;73.05
72855;BME280;60991;51.278;22.550;2022-11-25T00:56:02;99055.31;;;1.14;73.32
72855;BME280;60991;51.278;22.550;2022-11-25T00:57:32;99056.31;;;1.13;73.02
72855;BME280;60991;51.278;22.550;2022-11-25T00:59:03;99058.56;;;1.16;73.38
72855;BME280;60991;51.278;22.550;2022-11-25T01:00:33;99061.97;;;1.16;73.46
72855;BME280;60991;51.278;22.550;2022-11-25T01:02:03;99065.41;;;1.17;73.53
72855;BME280;60991;51.278;22.550;2022-11-25T01:03:34;99064.59;;;1.16;72.98
72855;BME280;60991;51.278;22.550;2022-11-25T01:05:04;99063.59;;;1.17;73.45
72855;BME280;60991;51.278;22.550;2022-11-25T01:06:36;99059.19;;;1.18;73.42
72855;BME280;60991;51.278;22.550;2022-11-25T01:08:06;99063.88;;;1.22;72.80
72855;BME280;60991;51.278;22.550;2022-11-25T01:09:36;99067.66;;;1.20;73.53
72855;BME280;60991;51.278;22.550;2022-11-25T01:11:10;99064.53;;;1.10;73.80
72855;BME280;60991;51.278;22.550;2022-11-25T01:12:41;99060.72;;;1.12;73.37
72855;BME280;60991;51.278;22.550;2022-11-25T01:14:11;99059.41;;;1.01;73.39
72855;BME280;60991;51.278;22.550;2022-11-25T01:15:41;99062.31;;;0.92;73.64
72855;BME280;60991;51.278;22.550;2022-11-25T01:17:11;99061.25;;;0.86;73.76
72855;BME280;60991;51.278;22.550;2022-11-25T01:18:42;99062.59;;;0.82;74.61
72855;BME280;60991;51.278;22.550;2022-11-25T01:20:15;99065.31;;;0.89;74.47
72855;BME280;60991;51.278;22.550;2022-11-25T01:21:45;99069.78;;;0.95;73.93
72855;BME280;60991;51.278;22.550;2022-11-25T01:23:16;99070.75;;;0.94;74.05
72855;BME280;60991;51.278;22.550;2022-11-25T01:24:46;99070.84;;;1.00;73.98
72855;BME280;60991;51.278;22.550;2022-11-25T01:26:20;99066.75;;;0.91;74.13
72855;BME280;60991;51.278;22.550;2022-11-25T01:27:50;99077.06;;;0.99;74.14
72855;BME280;60991;51.278;22.550;2022-11-25T01:29:21;99076.34;;;1.06;74.41
72855;BME280;60991;51.278;22.550;2022-11-25T01:31:21;99078.78;;;1.07;74.32
72855;BME280;60991;51.278;22.550;2022-11-25T01:32:51;99078.41;;;1.10;74.23
72855;BME280;60991;51.278;22.550;2022-11-25T01:34:24;99079.00;;;1.12;73.85
72855;BME280;60991;51.278;22.550;2022-11-25T01:35:55;99078.03;;;1.13;73.52
72855;BME280;60991;51.278;22.550;2022-11-25T01:37:25;99079.28;;;1.17;73.95
72855;BME280;60991;51.278;22.550;2022-11-25T01:38:57;99084.31;;;1.19;73.77
72855;BME280;60991;51.278;22.550;2022-11-25T01:40:28;99081.00;;;1.25;73.50
72855;BME280;60991;51.278;22.550;2022-11-25T01:41:59;99086.84;;;1.27;73.06
72855;BME280;60991;51.278;22.550;2022-11-25T01:43:29;99086.50;;;1.15;73.42
72855;BME280;60991;51.278;22.550;2022-11-25T01:45:31;99092.34;;;1.17;73.24
72855;BME280;60991;51.278;22.550;2022-11-25T01:47:14;99094.00;;;1.03;73.39
72855;BME280;60991;51.278;22.550;2022-11-25T01:49:02;99091.50;;;1.10;73.78
72855;BME280;60991;51.278;22.550;2022-11-25T01:50:35;99093.97;;;1.18;73.31
72855;BME280;60991;51.278;22.550;2022-11-25T01:53:42;99090.41;;;1.04;73.72
72855;BME280;60991;51.278;22.550;2022-11-25T01:55:32;99091.28;;;1.12;74.22
72855;BME280;60991;51.278;22.550;2022-11-25T01:57:09;99096.41;;;1.20;73.33
72855;BME280;60991;51.278;22.550;2022-11-25T01:58:41;99092.09;;;1.12;73.97
72855;BME280;60991;51.278;22.550;2022-11-25T02:00:13;99090.91;;;1.15;74.01
72855;BME280;60991;51.278;22.550;2022-11-25T02:01:44;99097.44;;;1.04;73.71
72855;BME280;60991;51.278;22.550;2022-11-25T02:03:14;99097.81;;;1.01;73.96
72855;BME280;60991;51.278;22.550;2022-11-25T02:04:45;99089.97;;;1.01;74.57
72855;BME280;60991;51.278;22.550;2022-11-25T02:06:28;99092.75;;;0.99;74.51
72855;BME280;60991;51.278;22.550;2022-11-25T02:08:03;99093.38;;;1.01;74.17
72855;BME280;60991;51.278;22.550;2022-11-25T02:09:38;99091.75;;;1.00;74.22
72855;BME280;60991;51.278;22.550;2022-11-25T02:11:10;99096.63;;;1.03;74.50
72855;BME280;60991;51.278;22.550;2022-11-25T02:12:42;99096.25;;;1.07;74.12
72855;BME280;60991;51.278;22.550;2022-11-25T02:14:15;99095.72;;;1.11;73.81
72855;BME280;60991;51.278;22.550;2022-11-25T02:15:47;99089.88;;;1.09;74.05
72855;BME280;60991;51.278;22.550;2022-11-25T02:17:17;99090.13;;;0.99;73.66
72855;BME280;60991;51.278;22.550;2022-11-25T02:18:48;99082.75;;;1.03;74.14
72855;BME280;60991;51.278;22.550;2022-11-25T02:20:20;99088.44;;;1.07;73.75
72855;BME280;60991;51.278;22.550;2022-11-25T02:21:55;99086.44;;;1.09;74.23
72855;BME280;60991;51.278;22.550;2022-11-25T02:25:34;99095.97;;;1.16;74.10
72855;BME280;60991;51.278;22.550;2022-11-25T02:27:05;99091.53;;;1.17;73.43
72855;BME280;60991;51.278;22.550;2022-11-25T02:28:36;99089.56;;;1.19;73.33
72855;BME280;60991;51.278;22.550;2022-11-25T02:30:07;99092.00;;;1.20;73.26
72855;BME280;60991;51.278;22.550;2022-11-25T02:31:37;99091.53;;;1.17;73.30
72855;BME280;60991;51.278;22.550;2022-11-25T02:33:07;99090.38;;;1.19;72.96
72855;BME280;60991;51.278;22.550;2022-11-25T02:34:47;99091.34;;;1.18;73.31
72855;BME280;60991;51.278;22.550;2022-11-25T02:36:20;99088.75;;;1.18;73.48
72855;BME280;60991;51.278;22.550;2022-11-25T02:37:58;99093.16;;;1.18;73.61
72855;BME280;60991;51.278;22.550;2022-11-25T02:39:28;99096.03;;;1.23;73.30
72855;BME280;60991;51.278;22.550;2022-11-25T02:41:06;99094.25;;;1.23;73.67
72855;BME280;60991;51.278;22.550;2022-11-25T02:42:39;99096.69;;;1.25;73.53
72855;BME280;60991;51.278;22.550;2022-11-25T02:44:10;99100.72;;;1.27;72.65
72855;BME280;60991;51.278;22.550;2022-11-25T02:45:46;99093.06;;;1.26;73.17
72855;BME280;60991;51.278;22.550;2022-11-25T02:47:18;99095.69;;;1.26;72.93
72855;BME280;60991;51.278;22.550;2022-11-25T02:48:50;99091.44;;;1.25;73.35
72855;BME280;60991;51.278;22.550;2022-11-25T02:50:21;99095.50;;;1.27;73.26
72855;BME280;60991;51.278;22.550;2022-11-25T02:51:51;99100.34;;;1.30;72.69
72855;BME280;60991;51.278;22.550;2022-11-25T02:53:22;99102.13;;;1.09;73.01
72855;BME280;60991;51.278;22.550;2022-11-25T02:54:52;99100.66;;;1.21;72.58
72855;BME280;60991;51.278;22.550;2022-11-25T02:56:30;99097.13;;;1.14;73.10
72855;BME280;60991;51.278;22.550;2022-11-25T02:58:00;99096.09;;;1.08;73.32
72855;BME280;60991;51.278;22.550;2022-11-25T02:59:31;99101.13;;;0.95;73.82
72855;BME280;60991;51.278;22.550;2022-11-25T03:01:01;99095.19;;;1.01;73.51
72855;BME280;60991;51.278;22.550;2022-11-25T03:02:31;99097.38;;;0.83;74.15
72855;BME280;60991;51.278;22.550;2022-11-25T03:04:02;99096.03;;;0.87;74.04
72855;BME280;60991;51.278;22.550;2022-11-25T03:05:32;99097.38;;;0.83;73.92
72855;BME280;60991;51.278;22.550;2022-11-25T03:07:02;99094.84;;;0.89;74.32
72855;BME280;60991;51.278;22.550;2022-11-25T03:08:33;99098.09;;;0.62;75.11
72855;BME280;60991;51.278;22.550;2022-11-25T03:10:04;99094.13;;;0.81;74.81
72855;BME280;60991;51.278;22.550;2022-11-25T03:11:34;99101.69;;;0.90;74.30
72855;BME280;60991;51.278;22.550;2022-11-25T03:13:06;99100.44;;;0.86;74.46
72855;BME280;60991;51.278;22.550;2022-11-25T03:14:37;99105.38;;;0.96;73.86
72855;BME280;60991;51.278;22.550;2022-11-25T03:16:07;99103.06;;;0.86;74.38
72855;BME280;60991;51.278;22.550;2022-11-25T03:17:38;99095.72;;;0.96;73.96
72855;BME280;60991;51.278;22.550;2022-11-25T03:19:08;99103.22;;;0.99;73.67
72855;BME280;60991;51.278;22.550;2022-11-25T03:20:38;99097.81;;;1.01;73.77
72855;BME280;60991;51.278;22.550;2022-11-25T03:22:08;99104.91;;;1.07;73.89
72855;BME280;60991;51.278;22.550;2022-11-25T03:23:39;99103.06;;;0.86;74.23
72855;BME280;60991;51.278;22.550;2022-11-25T03:25:10;99103.88;;;0.87;74.54
72855;BME280;60991;51.278;22.550;2022-11-25T03:26:41;99105.13;;;0.91;74.00
72855;BME280;60991;51.278;22.550;2022-11-25T03:28:11;99110.41;;;0.97;73.97
72855;BME280;60991;51.278;22.550;2022-11-25T03:29:42;99110.69;;;1.02;73.95
72855;BME280;60991;51.278;22.550;2022-11-25T03:31:12;99111.78;;;1.08;74.24
72855;BME280;60991;51.278;22.550;2022-11-25T03:32:42;99119.59;;;1.08;74.32
72855;BME280;60991;51.278;22.550;2022-11-25T03:34:13;99114.81;;;1.12;74.23
72855;BME280;60991;51.278;22.550;2022-11-25T03:35:43;99118.69;;;1.16;74.23
72855;BME280;60991;51.278;22.550;2022-11-25T03:37:13;99116.34;;;1.21;74.22
72855;BME280;60991;51.278;22.550;2022-11-25T03:38:43;99113.13;;;1.04;74.14
72855;BME280;60991;51.278;22.550;2022-11-25T03:40:15;99116.81;;;1.10;73.77
72855;BME280;60991;51.278;22.550;2022-11-25T03:41:45;99126.00;;;1.06;73.61
72855;BME280;60991;51.278;22.550;2022-11-25T03:43:15;99124.09;;;1.14;73.27
72855;BME280;60991;51.278;22.550;2022-11-25T03:44:46;99122.94;;;1.02;73.99
72855;BME280;60991;51.278;22.550;2022-11-25T03:46:16;99121.22;;;0.94;73.84
72855;BME280;60991;51.278;22.550;2022-11-25T03:47:46;99124.84;;;0.93;73.68
72855;BME280;60991;51.278;22.550;2022-11-25T03:49:17;99121.69;;;0.98;73.85
72855;BME280;60991;51.278;22.550;2022-11-25T03:50:47;99121.31;;;1.01;73.75
72855;BME280;60991;51.278;22.550;2022-11-25T03:52:17;99128.81;;;0.89;74.82
72855;BME280;60991;51.278;22.550;2022-11-25T03:53:48;99130.63;;;0.74;74.92
72855;BME280;60991;51.278;22.550;2022-11-25T03:55:18;99126.31;;;0.66;75.18
72855;BME280;60991;51.278;22.550;2022-11-25T03:56:48;99130.88;;;0.79;74.92
72855;BME280;60991;51.278;22.550;2022-11-25T03:58:18;99131.78;;;0.86;74.84
72855;BME280;60991;51.278;22.550;2022-11-25T03:59:49;99129.53;;;0.83;74.97
72855;BME280;60991;51.278;22.550;2022-11-25T04:01:19;99129.69;;;0.96;75.01
72855;BME280;60991;51.278;22.550;2022-11-25T04:02:49;99126.53;;;1.01;74.49
72855;BME280;60991;51.278;22.550;2022-11-25T04:04:19;99140.53;;;1.08;74.71
72855;BME280;60991;51.278;22.550;2022-11-25T04:05:50;99134.72;;;1.13;73.78
72855;BME280;60991;51.278;22.550;2022-11-25T04:07:20;99126.53;;;1.16;73.72
72855;BME280;60991;51.278;22.550;2022-11-25T04:08:50;99133.19;;;1.18;74.05
72855;BME280;60991;51.278;22.550;2022-11-25T04:10:20;99136.44;;;1.20;73.99
72855;BME280;60991;51.278;22.550;2022-11-25T04:11:51;99130.84;;;1.23;73.92
72855;BME280;60991;51.278;22.550;2022-11-25T04:13:21;99126.25;;;1.25;73.52
72855;BME280;60991;51.278;22.550;2022-11-25T04:14:51;99133.53;;;1.30;74.12
72855;BME280;60991;51.278;22.550;2022-11-25T04:16:24;99136.94;;;1.30;73.64
72855;BME280;60991;51.278;22.550;2022-11-25T04:17:55;99136.41;;;1.35;73.75
72855;BME280;60991;51.278;22.550;2022-11-25T04:19:25;99139.81;;;1.35;73.68
72855;BME280;60991;51.278;22.550;2022-11-25T04:20:55;99136.56;;;1.33;73.58
72855;BME280;60991;51.278;22.550;2022-11-25T04:22:25;99135.03;;;1.39;73.03
72855;BME280;60991;51.278;22.550;2022-11-25T04:23:56;99134.41;;;1.37;73.81
72855;BME280;60991;51.278;22.550;2022-11-25T04:25:26;99145.69;;;1.37;73.86
72855;BME280;60991;51.278;22.550;2022-11-25T04:26:56;99142.00;;;1.32;73.53
72855;BME280;60991;51.278;22.550;2022-11-25T04:28:26;99149.84;;;1.32;73.14
72855;BME280;60991;51.278;22.550;2022-11-25T04:29:57;99152.22;;;1.27;73.74
72855;BME280;60991;51.278;22.550;2022-11-25T04:31:27;99154.66;;;1.28;73.49
72855;BME280;60991;51.278;22.550;2022-11-25T04:32:57;99155.69;;;1.34;73.28
72855;BME280;60991;51.278;22.550;2022-11-25T04:34:28;99154.53;;;1.36;73.41
72855;BME280;60991;51.278;22.550;2022-11-25T04:35:58;99156.94;;;1.38;73.24
72855;BME280;60991;51.278;22.550;2022-11-25T04:37:28;99157.94;;;1.37;73.00
72855;BME280;60991;51.278;22.550;2022-11-25T04:38:58;99147.84;;;1.34;73.21
72855;BME280;60991;51.278;22.550;2022-11-25T04:40:28;99155.69;;;1.34;73.00
72855;BME280;60991;51.278;22.550;2022-11-25T04:41:59;99156.06;;;1.31;73.07
72855;BME280;60991;51.278;22.550;2022-11-25T04:43:29;99157.44;;;1.27;73.25
72855;BME280;60991;51.278;22.550;2022-11-25T04:45:01;99157.44;;;1.27;72.71
72855;BME280;60991;51.278;22.550;2022-11-25T04:46:37;99151.66;;;1.17;73.22
72855;BME280;60991;51.278;22.550;2022-11-25T04:48:09;99157.63;;;1.25;73.46
72855;BME280;60991;51.278;22.550;2022-11-25T04:49:39;99159.59;;;1.23;73.37
72855;BME280;60991;51.278;22.550;2022-11-25T04:51:09;99161.41;;;1.23;73.51
72855;BME280;60991;51.278;22.550;2022-11-25T04:52:39;99159.25;;;1.26;73.22
72855;BME280;60991;51.278;22.550;2022-11-25T04:54:10;99163.66;;;1.26;73.12
72855;BME280;60991;51.278;22.550;2022-11-25T04:55:40;99161.22;;;1.24;72.98
72855;BME280;60991;51.278;22.550;2022-11-25T04:57:14;99170.69;;;1.25;73.21
72855;BME280;60991;51.278;22.550;2022-11-25T04:58:44;99170.69;;;1.25;73.56
72855;BME280;60991;51.278;22.550;2022-11-25T05:00:15;99172.94;;;1.28;72.99
72855;BME280;60991;51.278;22.550;2022-11-25T05:01:45;99172.31;;;1.26;73.30
72855;BME280;60991;51.278;22.550;2022-11-25T05:03:16;99163.03;;;1.24;73.57
72855;BME280;60991;51.278;22.550;2022-11-25T05:04:47;99160.31;;;1.17;73.21
72855;BME280;60991;51.278;22.550;2022-11-25T05:06:18;99165.72;;;1.16;73.72
72855;BME280;60991;51.278;22.550;2022-11-25T05:07:48;99166.53;;;1.16;74.08
72855;BME280;60991;51.278;22.550;2022-11-25T05:09:18;99174.91;;;1.12;74.04
72855;BME280;60991;51.278;22.550;2022-11-25T05:10:49;99172.69;;;1.09;74.36
72855;BME280;60991;51.278;22.550;2022-11-25T05:12:24;99175.72;;;1.12;73.93
72855;BME280;60991;51.278;22.550;2022-11-25T05:13:54;99176.75;;;1.11;74.38
72855;BME280;60991;51.278;22.550;2022-11-25T05:15:25;99174.22;;;1.18;73.88
72855;BME280;60991;51.278;22.550;2022-11-25T05:16:55;99176.00;;;1.17;74.17
72855;BME280;60991;51.278;22.550;2022-11-25T05:18:25;99174.66;;;1.21;73.92
72855;BME280;60991;51.278;22.550;2022-11-25T05:19:56;99175.28;;;1.23;73.43
72855;BME280;60991;51.278;22.550;2022-11-25T05:21:26;99172.13;;;1.28;73.20
72855;BME280;60991;51.278;22.550;2022-11-25T05:22:56;99171.31;;;1.27;73.44
72855;BME280;60991;51.278;22.550;2022-11-25T05:24:26;99177.78;;;1.31;73.56
72855;BME280;60991;51.278;22.550;2022-11-25T05:26:01;99185.44;;;1.33;73.70
72855;BME280;60991;51.278;22.550;2022-11-25T05:27:31;99181.38;;;1.30;73.25
72855;BME280;60991;51.278;22.550;2022-11-25T05:29:02;99190.03;;;1.31;73.39
72855;BME280;60991;51.278;22.550;2022-11-25T05:30:32;99187.81;;;1.28;73.35
72855;BME280;60991;51.278;22.550;2022-11-25T05:32:03;99189.81;;;1.26;73.91
72855;BME280;60991;51.278;22.550;2022-11-25T05:33:34;99195.84;;;1.26;73.36
72855;BME280;60991;51.278;22.550;2022-11-25T05:35:04;99189.44;;;1.29;73.81
72855;BME280;60991;51.278;22.550;2022-11-25T05:36:35;99189.63;;;1.27;73.89
72855;BME280;60991;51.278;22.550;2022-11-25T05:38:05;99189.97;;;1.24;73.30
72855;BME280;60991;51.278;22.550;2022-11-25T05:39:36;99180.53;;;1.23;74.16
72855;BME280;60991;51.278;22.550;2022-11-25T05:41:06;99187.81;;;1.28;73.70
72855;BME280;60991;51.278;22.550;2022-11-25T05:42:37;99189.22;;;1.30;73.57
72855;BME280;60991;51.278;22.550;2022-11-25T05:44:07;99189.53;;;1.21;73.86
72855;BME280;60991;51.278;22.550;2022-11-25T05:45:38;99190.53;;;1.20;73.74
72855;BME280;60991;51.278;22.550;2022-11-25T05:47:08;99189.34;;;1.22;73.54
72855;BME280;60991;51.278;22.550;2022-11-25T05:48:38;99195.75;;;1.20;73.68
72855;BME280;60991;51.278;22.550;2022-11-25T05:50:08;99197.56;;;1.19;73.96
72855;BME280;60991;51.278;22.550;2022-11-25T05:51:39;99193.13;;;1.20;73.74
72855;BME280;60991;51.278;22.550;2022-11-25T05:53:09;99201.34;;;1.17;74.10
72855;BME280;60991;51.278;22.550;2022-11-25T05:54:39;99201.34;;;1.17;74.53
72855;BME280;60991;51.278;22.550;2022-11-25T05:56:10;99204.75;;;1.17;74.08
72855;BME280;60991;51.278;22.550;2022-11-25T05:57:40;99213.06;;;1.21;74.21
72855;BME280;60991;51.278;22.550;2022-11-25T05:59:10;99209.28;;;1.23;74.17
72855;BME280;60991;51.278;22.550;2022-11-25T06:00:42;99222.53;;;1.22;74.24
72855;BME280;60991;51.278;22.550;2022-11-25T06:02:12;99217.56;;;1.27;74.67
72855;BME280;60991;51.278;22.550;2022-11-25T06:03:42;99219.72;;;1.23;74.04
72855;BME280;60991;51.278;22.550;2022-11-25T06:05:13;99224.44;;;1.28;74.24
72855;BME280;60991;51.278;22.550;2022-11-25T06:06:43;99225.78;;;1.24;74.01
72855;BME280;60991;51.278;22.550;2022-11-25T06:08:13;99228.75;;;1.21;74.61
72855;BME280;60991;51.278;22.550;2022-11-25T06:09:43;99234.97;;;1.20;74.27
72855;BME280;60991;51.278;22.550;2022-11-25T06:11:15;99232.97;;;1.22;74.56
72855;BME280;60991;51.278;22.550;2022-11-25T06:12:45;99234.44;;;1.24;74.24
72855;BME280;60991;51.278;22.550;2022-11-25T06:14:16;99233.25;;;1.27;74.51
72855;BME280;60991;51.278;22.550;2022-11-25T06:15:46;99237.03;;;1.24;74.57
72855;BME280;60991;51.278;22.550;2022-11-25T06:17:16;99238.13;;;1.30;75.17
72855;BME280;60991;51.278;22.550;2022-11-25T06:18:47;99238.38;;;1.35;74.39
72855;BME280;60991;51.278;22.550;2022-11-25T06:20:17;99231.81;;;1.39;74.55
72855;BME280;60991;51.278;22.550;2022-11-25T06:21:48;99241.91;;;1.42;74.41
72855;BME280;60991;51.278;22.550;2022-11-25T06:23:18;99238.28;;;1.43;74.43
72855;BME280;60991;51.278;22.550;2022-11-25T06:24:48;99231.44;;;1.42;74.82
72855;BME280;60991;51.278;22.550;2022-11-25T06:26:20;99240.56;;;1.46;75.00
72855;BME280;60991;51.278;22.550;2022-11-25T06:27:51;99235.13;;;1.48;74.76
72855;BME280;60991;51.278;22.550;2022-11-25T06:29:21;99243.97;;;1.47;74.83
72855;BME280;60991;51.278;22.550;2022-11-25T06:30:54;99245.31;;;1.43;74.84
72855;BME280;60991;51.278;22.550;2022-11-25T06:32:24;99242.34;;;1.46;74.73
72855;BME280;60991;51.278;22.550;2022-11-25T06:33:54;99247.41;;;1.47;74.64
72855;BME280;60991;51.278;22.550;2022-11-25T06:35:25;99247.59;;;1.46;74.41
72855;BME280;60991;51.278;22.550;2022-11-25T06:36:55;99242.09;;;1.41;75.02
72855;BME280;60991;51.278;22.550;2022-11-25T06:38:25;99254.88;;;1.35;74.87
72855;BME280;60991;51.278;22.550;2022-11-25T06:39:55;99253.25;;;1.34;75.01
72855;BME280;60991;51.278;22.550;2022-11-25T06:41:25;99256.31;;;1.38;74.76
72855;BME280;60991;51.278;22.550;2022-11-25T06:42:56;99251.72;;;1.40;74.85
72855;BME280;60991;51.278;22.550;2022-11-25T06:44:26;99251.00;;;1.46;74.57
72855;BME280;60991;51.278;22.550;2022-11-25T06:46:07;99244.22;;;1.52;74.13
72855;BME280;60991;51.278;22.550;2022-11-25T06:47:38;99259.00;;;1.59;74.16
72855;BME280;60991;51.278;22.550;2022-11-25T06:49:08;99258.84;;;1.61;74.41
72855;BME280;60991;51.278;22.550;2022-11-25T06:50:38;99259.28;;;1.64;74.48
72855;BME280;60991;51.278;22.550;2022-11-25T06:52:09;99256.50;;;1.66;73.51
72855;BME280;60991;51.278;22.550;2022-11-25T06:53:39;99258.13;;;1.67;73.50
72855;BME280;60991;51.278;22.550;2022-11-25T06:55:10;99253.59;;;1.61;74.22
72855;BME280;60991;51.278;22.550;2022-11-25T06:56:40;99255.50;;;1.67;73.90
72855;BME280;60991;51.278;22.550;2022-11-25T06:58:10;99259.00;;;1.59;73.52
72855;BME280;60991;51.278;22.550;2022-11-25T06:59:41;99266.06;;;1.44;74.42
72855;BME280;60991;51.278;22.550;2022-11-25T07:01:16;99270.75;;;1.19;74.67
72855;BME280;60991;51.278;22.550;2022-11-25T07:02:47;99275.63;;;1.22;74.57
72855;BME280;60991;51.278;22.550;2022-11-25T07:04:19;99271.91;;;1.31;74.88
72855;BME280;60991;51.278;22.550;2022-11-25T07:05:50;99273.00;;;1.08;74.67
72855;BME280;60991;51.278;22.550;2022-11-25T07:07:20;99267.69;;;1.01;74.72
72855;BME280;60991;51.278;22.550;2022-11-25T07:08:50;99277.88;;;1.11;75.19
72855;BME280;60991;51.278;22.550;2022-11-25T07:10:20;99277.44;;;1.22;74.63
72855;BME280;60991;51.278;22.550;2022-11-25T07:11:51;99272.72;;;1.32;73.98
72855;BME280;60991;51.278;22.550;2022-11-25T07:13:39;99273.38;;;1.34;73.71
72855;BME280;60991;51.278;22.550;2022-11-25T07:15:09;99280.69;;;1.38;74.51
72855;BME280;60991;51.278;22.550;2022-11-25T07:16:41;99280.13;;;1.43;74.28
72855;BME280;60991;51.278;22.550;2022-11-25T07:18:13;99281.19;;;1.49;73.91
72855;BME280;60991;51.278;22.550;2022-11-25T07:19:46;99280.41;;;1.48;73.80
72855;BME280;60991;51.278;22.550;2022-11-25T07:21:23;99278.41;;;1.50;73.87
72855;BME280;60991;51.278;22.550;2022-11-25T07:22:54;99284.47;;;1.36;74.42
72855;BME280;60991;51.278;22.550;2022-11-25T07:24:45;99284.63;;;1.34;74.75
72855;BME280;60991;51.278;22.550;2022-11-25T07:26:18;99284.38;;;1.44;73.64
72855;BME280;60991;51.278;22.550;2022-11-25T07:27:48;99279.69;;;1.39;73.73
72855;BME280;60991;51.278;22.550;2022-11-25T07:29:18;99295.19;;;1.41;74.55
72855;BME280;60991;51.278;22.550;2022-11-25T07:30:49;99286.63;;;1.47;74.04
72855;BME280;60991;51.278;22.550;2022-11-25T07:32:19;99293.56;;;1.55;73.88
72855;BME280;60991;51.278;22.550;2022-11-25T07:34:13;99290.41;;;1.59;73.67
72855;BME280;60991;51.278;22.550;2022-11-25T07:35:44;99298.06;;;1.61;73.91
72855;BME280;60991;51.278;22.550;2022-11-25T07:37:15;99288.06;;;1.50;73.73
72855;BME280;60991;51.278;22.550;2022-11-25T07:38:45;99293.66;;;1.47;73.95
72855;BME280;60991;51.278;22.550;2022-11-25T07:40:18;99282.75;;;1.43;74.79
72855;BME280;60991;51.278;22.550;2022-11-25T07:41:50;99285.19;;;1.45;74.58
72855;BME280;60991;51.278;22.550;2022-11-25T07:43:21;99288.69;;;1.52;74.58
72855;BME280;60991;51.278;22.550;2022-11-25T07:44:51;99298.72;;;1.48;74.80
72855;BME280;60991;51.278;22.550;2022-11-25T07:46:46;99296.81;;;1.42;74.19
72855;BME280;60991;51.278;22.550;2022-11-25T07:48:16;99290.22;;;1.31;74.10
72855;BME280;60991;51.278;22.550;2022-11-25T07:49:46;99293.41;;;1.42;73.87
72855;BME280;60991;51.278;22.550;2022-11-25T07:51:29;99296.28;;;1.47;73.50
72855;BME280;60991;51.278;22.550;2022-11-25T07:53:00;99296.34;;;1.53;73.91
72855;BME280;60991;51.278;22.550;2022-11-25T07:54:30;99297.63;;;1.43;73.93
72855;BME280;60991;51.278;22.550;2022-11-25T07:56:01;99296.53;;;1.37;74.38
72855;BME280;60991;51.278;22.550;2022-11-25T07:57:31;99294.28;;;1.49;73.91
72855;BME280;60991;51.278;22.550;2022-11-25T07:59:02;99304.84;;;1.55;73.65
72855;BME280;60991;51.278;22.550;2022-11-25T08:00:32;99296.88;;;1.49;73.95
72855;BME280;60991;51.278;22.550;2022-11-25T08:02:02;99299.50;;;1.49;74.17
72855;BME280;60991;51.278;22.550;2022-11-25T08:03:37;99306.28;;;1.58;73.73
72855;BME280;60991;51.278;22.550;2022-11-25T08:05:08;99304.84;;;1.55;73.54
72855;BME280;60991;51.278;22.550;2022-11-25T08:06:40;99305.28;;;1.59;74.03
72855;BME280;60991;51.278;22.550;2022-11-25T08:08:11;99318.91;;;1.54;73.97
72855;BME280;60991;51.278;22.550;2022-11-25T08:09:42;99319.09;;;1.38;74.13